createdAt,value
2023-04-30T00:04:52.155Z,180
2023-04-30T00:09:43.666Z,230
2023-04-30T00:14:46.956Z,265
2023-04-30T00:19:45.167Z,235
2023-04-30T00:34:40.046Z,245
2023-04-30T00:39:43.339Z,265
2023-04-30T00:54:55.807Z,225
2023-04-30T00:59:51.877Z,210
2023-04-30T01:01:02.401Z,215
2023-04-30T01:06:16.054Z,235
2023-04-30T01:11:08.995Z,250
2023-04-30T01:26:04.886Z,200
2023-04-30T02:05:18.801Z,210
2023-04-30T02:10:28.970Z,200
2023-04-30T02:15:31.322Z,205
2023-04-30T02:20:25.430Z,215
2023-04-30T02:25:20.451Z,220
2023-04-30T02:30:19.340Z,210
2023-04-30T02:35:19.962Z,205
2023-04-30T02:40:28.653Z,210
2023-04-30T02:45:17.456Z,215
2023-04-30T02:50:27.585Z,210
2023-04-30T02:59:57.882Z,200
2023-04-30T03:04:55.589Z,205
2023-04-30T03:10:00.139Z,240
2023-04-30T03:24:52.800Z,220
2023-04-30T03:29:55.758Z,215
2023-04-30T03:34:46.775Z,210
2023-04-30T03:39:47.098Z,135
2023-04-30T03:44:47.584Z,215
2023-04-30T03:49:55.981Z,225
2023-04-30T03:59:48.631Z,225
2023-04-30T04:04:58.183Z,215
2023-04-30T04:09:57.182Z,145
2023-04-30T04:14:50.153Z,220
2023-04-30T04:24:43.344Z,215
2023-04-30T04:34:51.873Z,235
2023-04-30T04:39:47.664Z,210
2023-04-30T04:44:37.663Z,215
2023-04-30T04:49:56.770Z,205
2023-04-30T04:54:58.256Z,210
2023-04-30T05:00:21.537Z,165
2023-04-30T05:01:53.366Z,175
2023-04-30T05:11:42.834Z,170
2023-04-30T05:16:16.521Z,190
2023-04-30T05:21:15.901Z,200
2023-04-30T05:26:11.527Z,210
2023-04-30T05:41:21.032Z,260
2023-04-30T05:46:04.409Z,285
2023-04-30T05:51:06.335Z,165
2023-04-30T06:00:23.158Z,180
2023-04-30T06:05:19.686Z,210
2023-04-30T06:10:14.664Z,220
2023-04-30T06:15:11.610Z,215
2023-04-30T06:30:09.707Z,195
2023-04-30T06:45:07.997Z,60
2023-04-30T06:50:17.790Z,5
2023-04-30T06:55:12.196Z,35
2023-04-30T07:00:20.857Z,55
2023-04-30T07:05:17.666Z,25
2023-04-30T07:15:04.551Z,160
2023-04-30T07:20:59.786Z,50
2023-04-30T07:30:10.509Z,205
